首页
METAR-TAF:

METAR-TAF

机场 :

乔莫·肯雅塔国际机场

奈洛比, 肯尼亚

纬度: 01-19S, 经度: 036-55E, 海拔: 1624米

当前天气观测

该预报发布于1小时和22分钟前的12:30 UTC
风速3节,风向东南
温度 21°C
湿度 73%
气压 1021 hPa
能见度10公里或以上
多云层高于2500英尺

METAR: HKJK 251230Z 14003KT 9999 BKN025 21/16 Q1021 NOSIG

时间: 16:52 (13:52 UTC)

预报

该预报发布于8小时和52分钟前的05:00 UTC
预报有效从25日的 06点(UTC)到 26日的 12点(UTC)
风速5节,风向东南
能见度10公里或以上
多云层高于1900英尺
多云层高于8000英尺
几率 40% :
短暂存在
在之间 25和00点(UTC)
少量云层高于800英尺
多云层高于1900英尺
多云层高于8000英尺
小雨
成为
从 25日的 08点(UTC)到 25日的 11点(UTC)
多云层高于2500英尺
成为
从 25日的 15点(UTC)到 25日的 18点(UTC)
风速10节,风向
少量云层高于2400英尺, 积雨云.
散云层高于2500英尺
多云层高于8000英尺
小阵雨
短暂存在
从 26日的 00点(UTC)到 26日的 03点(UTC)
风速5节,风向东北
少量云层高于1600英尺
多云层高于8000英尺
几率 30% :
成为
从 26日的 03点(UTC)到 26日的 06点(UTC)
风速5节,风向
少量云层高于2000英尺, 积雨云.
散云层高于2100英尺
多云层高于8000英尺
小雨

TAF: HKJK 250500Z 2506/2612 14005KT 9999 BKN019 BKN080 PROB40 TEMPO 25006/2509 0405KT -RA FEW008 BKN019 BKN080 BECMG 2508/2511 BKN025 BECMG 2515/2518 09010KT -SHRA FEW024CB SCT025 BKN080 TEMPO 2600/2603 04005KT NSW FEW016 BKN080 PROB30 BECMG 2603/2606 09005KT -RA FEW020CB SCT021 BKN080

超过4000个机场的气象观测和天气预报(METAR&TAF报告)。

可查询的气象台以黄色和红色小点在地图上表示。

将鼠标移到小点上方,可查看气象台名称。

然后点击查看天气观测和预报。

如需切换地图:点击带黑十字的绿色按钮放大地图;点击带横线的绿色按钮缩小地图;或者点击绿色箭头查看邻近地区的地图。


METAR-TAF: